sensor_id;sensor_type;location;lat;lon;timestamp;pressure;altitude;pressure_sealevel;temperature;humidity
75460;BME280;64039;53.060;9.342;2023-03-23T00:01:06;99991.25;;;9.76;100.00
75460;BME280;64039;53.060;9.342;2023-03-23T00:03:32;99986.84;;;9.70;100.00
75460;BME280;64039;53.060;9.342;2023-03-23T00:05:58;99985.94;;;9.67;100.00
75460;BME280;64039;53.060;9.342;2023-03-23T00:08:35;99984.31;;;9.73;100.00
75460;BME280;64039;53.060;9.342;2023-03-23T00:11:16;99978.09;;;9.60;100.00
75460;BME280;64039;53.060;9.342;2023-03-23T00:13:44;99982.50;;;9.65;100.00
75460;BME280;64039;53.060;9.342;2023-03-23T00:16:13;99971.22;;;9.66;100.00
75460;BME280;64039;53.060;9.342;2023-03-23T00:18:46;99959.94;;;9.64;100.00
75460;BME280;64039;53.060;9.342;2023-03-23T00:21:13;99948.56;;;9.54;100.00
75460;BME280;64039;53.060;9.342;2023-03-23T00:23:40;99944.22;;;9.51;100.00
75460;BME280;64039;53.060;9.342;2023-03-23T00:26:06;99950.41;;;9.63;100.00
75460;BME280;64039;53.060;9.342;2023-03-23T00:28:32;99945.22;;;9.63;100.00
75460;BME280;64039;53.060;9.342;2023-03-23T00:31:08;99937.41;;;9.63;100.00
75460;BME280;64039;53.060;9.342;2023-03-23T00:33:36;99914.88;;;9.60;100.00
75460;BME280;64039;53.060;9.342;2023-03-23T00:36:08;99917.38;;;9.54;100.00
75460;BME280;64039;53.060;9.342;2023-03-23T00:38:35;99913.94;;;9.53;100.00
75460;BME280;64039;53.060;9.342;2023-03-23T00:41:02;99901.91;;;9.63;100.00
75460;BME280;64039;53.060;9.342;2023-03-23T00:43:29;99895.69;;;9.49;100.00
75460;BME280;64039;53.060;9.342;2023-03-23T00:45:56;99888.84;;;9.55;100.00
75460;BME280;64039;53.060;9.342;2023-03-23T00:48:23;99894.06;;;9.57;100.00
75460;BME280;64039;53.060;9.342;2023-03-23T00:50:50;99924.28;;;9.49;100.00
75460;BME280;64039;53.060;9.342;2023-03-23T00:53:16;99923.44;;;9.50;100.00
75460;BME280;64039;53.060;9.342;2023-03-23T00:55:44;99920.88;;;9.54;100.00
75460;BME280;64039;53.060;9.342;2023-03-23T00:58:11;99894.91;;;9.57;100.00
75460;BME280;64039;53.060;9.342;2023-03-23T01:00:37;99895.75;;;9.52;100.00
75460;BME280;64039;53.060;9.342;2023-03-23T01:03:04;99892.31;;;9.54;100.00
75460;BME280;64039;53.060;9.342;2023-03-23T01:05:33;99883.56;;;9.49;100.00
75460;BME280;64039;53.060;9.342;2023-03-23T01:07:58;99877.50;;;9.49;100.00
75460;BME280;64039;53.060;9.342;2023-03-23T01:10:24;99881.97;;;9.59;100.00
75460;BME280;64039;53.060;9.342;2023-03-23T01:12:51;99876.63;;;9.47;100.00
75460;BME280;64039;53.060;9.342;2023-03-23T01:15:19;99869.78;;;9.55;100.00
75460;BME280;64039;53.060;9.342;2023-03-23T01:17:44;99861.19;;;9.59;100.00
75460;BME280;64039;53.060;9.342;2023-03-23T01:20:14;99857.63;;;9.54;100.00
75460;BME280;64039;53.060;9.342;2023-03-23T01:22:41;99848.09;;;9.53;100.00
75460;BME280;64039;53.060;9.342;2023-03-23T01:25:09;99843.75;;;9.49;100.00
75460;BME280;64039;53.060;9.342;2023-03-23T01:27:35;99840.41;;;9.60;100.00
75460;BME280;64039;53.060;9.342;2023-03-23T01:30:01;99842.09;;;9.55;100.00
75460;BME280;64039;53.060;9.342;2023-03-23T01:32:28;99846.31;;;9.46;100.00
75460;BME280;64039;53.060;9.342;2023-03-23T01:34:53;99839.50;;;9.55;100.00
75460;BME280;64039;53.060;9.342;2023-03-23T01:37:19;99871.56;;;9.59;100.00
75460;BME280;64039;53.060;9.342;2023-03-23T01:39:45;99849.91;;;9.58;100.00
75460;BME280;64039;53.060;9.342;2023-03-23T01:42:11;99836.91;;;9.57;100.00
75460;BME280;64039;53.060;9.342;2023-03-23T01:47:02;99853.34;;;9.57;100.00
75460;BME280;64039;53.060;9.342;2023-03-23T01:49:32;99855.97;;;9.59;100.00
75460;BME280;64039;53.060;9.342;2023-03-23T01:52:13;99850.78;;;9.62;100.00
75460;BME280;64039;53.060;9.342;2023-03-23T01:54:43;99853.38;;;9.60;100.00
75460;BME280;64039;53.060;9.342;2023-03-23T01:57:15;99849.97;;;9.65;100.00
75460;BME280;64039;53.060;9.342;2023-03-23T01:59:47;99842.16;;;9.63;100.00
75460;BME280;64039;53.060;9.342;2023-03-23T02:02:15;99842.22;;;9.69;100.00
75460;BME280;64039;53.060;9.342;2023-03-23T02:04:41;99842.22;;;9.71;100.00
75460;BME280;64039;53.060;9.342;2023-03-23T02:07:07;99838.69;;;9.64;100.00
75460;BME280;64039;53.060;9.342;2023-03-23T02:09:34;99833.53;;;9.69;100.00
75460;BME280;64039;53.060;9.342;2023-03-23T02:11:59;99824.03;;;9.69;100.00
75460;BME280;64039;53.060;9.342;2023-03-23T02:14:26;99835.28;;;9.68;100.00
75460;BME280;64039;53.060;9.342;2023-03-23T02:17:00;99842.22;;;9.69;100.00
75460;BME280;64039;53.060;9.342;2023-03-23T02:22:53;99815.31;;;9.63;100.00
75460;BME280;64039;53.060;9.342;2023-03-23T02:25:53;99820.53;;;9.67;100.00
75460;BME280;64039;53.060;9.342;2023-03-23T02:33:52;99810.16;;;9.69;100.00
75460;BME280;64039;53.060;9.342;2023-03-23T02:36:42;99814.53;;;9.76;100.00
75460;BME280;64039;53.060;9.342;2023-03-23T02:39:37;99802.41;;;9.72;100.00
75460;BME280;64039;53.060;9.342;2023-03-23T02:42:08;99793.66;;;9.67;100.00
75460;BME280;64039;53.060;9.342;2023-03-23T02:44:38;99784.13;;;9.61;100.00
75460;BME280;64039;53.060;9.342;2023-03-23T02:47:08;99788.56;;;9.76;100.00
75460;BME280;64039;53.060;9.342;2023-03-23T02:49:36;99790.25;;;9.71;100.00
75460;BME280;64039;53.060;9.342;2023-03-23T02:52:07;99793.72;;;9.70;100.00
75460;BME280;64039;53.060;9.342;2023-03-23T02:54:34;99785.09;;;9.75;100.00
75460;BME280;64039;53.060;9.342;2023-03-23T02:57:01;99783.28;;;9.65;100.00
75460;BME280;64039;53.060;9.342;2023-03-23T02:59:28;99790.25;;;9.71;100.00
75460;BME280;64039;53.060;9.342;2023-03-23T03:02:10;99766.88;;;9.72;100.00
75460;BME280;64039;53.060;9.342;2023-03-23T03:04:38;99762.53;;;9.68;100.00
75460;BME280;64039;53.060;9.342;2023-03-23T03:07:36;99765.97;;;9.69;100.00
75460;BME280;64039;53.060;9.342;2023-03-23T03:10:19;99752.94;;;9.64;100.00
75460;BME280;64039;53.060;9.342;2023-03-23T03:15:33;99773.78;;;9.69;100.00
75460;BME280;64039;53.060;9.342;2023-03-23T03:18:25;99776.38;;;9.69;100.00
75460;BME280;64039;53.060;9.342;2023-03-23T03:21:00;99763.38;;;9.69;100.00
75460;BME280;64039;53.060;9.342;2023-03-23T03:23:28;99747.75;;;9.61;100.00
75460;BME280;64039;53.060;9.342;2023-03-23T03:25:55;99748.59;;;9.62;100.00
75460;BME280;64039;53.060;9.342;2023-03-23T03:28:24;99744.25;;;9.59;100.00
75460;BME280;64039;53.060;9.342;2023-03-23T03:30:57;99743.44;;;9.65;100.00
75460;BME280;64039;53.060;9.342;2023-03-23T03:33:27;99734.69;;;9.53;100.00
75460;BME280;64039;53.060;9.342;2023-03-23T03:35:57;99722.59;;;9.57;100.00
75460;BME280;64039;53.060;9.342;2023-03-23T03:38:24;99724.34;;;9.59;100.00
75460;BME280;64039;53.060;9.342;2023-03-23T03:40:50;99710.47;;;9.57;100.00
75460;BME280;64039;53.060;9.342;2023-03-23T03:43:16;99710.53;;;9.64;100.00
75460;BME280;64039;53.060;9.342;2023-03-23T03:45:42;99719.19;;;9.64;100.00
75460;BME280;64039;53.060;9.342;2023-03-23T03:48:07;99700.94;;;9.58;100.00
75460;BME280;64039;53.060;9.342;2023-03-23T03:50:33;99699.19;;;9.51;100.00
75460;BME280;64039;53.060;9.342;2023-03-23T03:52:58;99705.25;;;9.57;100.00
75460;BME280;64039;53.060;9.342;2023-03-23T03:55:24;99706.16;;;9.56;100.00
75460;BME280;64039;53.060;9.342;2023-03-23T03:57:50;99699.25;;;9.60;100.00
75460;BME280;64039;53.060;9.342;2023-03-23T04:00:16;99704.41;;;9.57;100.00
75460;BME280;64039;53.060;9.342;2023-03-23T04:02:43;99692.28;;;9.54;100.00
75460;BME280;64039;53.060;9.342;2023-03-23T04:05:10;99693.16;;;9.56;100.00
75460;BME280;64039;53.060;9.342;2023-03-23T04:07:36;99694.88;;;9.54;100.00
75460;BME280;64039;53.060;9.342;2023-03-23T04:10:07;99698.31;;;9.53;100.00
75460;BME280;64039;53.060;9.342;2023-03-23T04:12:33;99710.47;;;9.56;100.00
75460;BME280;64039;53.060;9.342;2023-03-23T04:15:00;99717.34;;;9.54;100.00
75460;BME280;64039;53.060;9.342;2023-03-23T04:17:25;99703.53;;;9.55;100.00
75460;BME280;64039;53.060;9.342;2023-03-23T04:19:52;99712.19;;;9.57;100.00
75460;BME280;64039;53.060;9.342;2023-03-23T04:22:17;99713.97;;;9.63;100.00
75460;BME280;64039;53.060;9.342;2023-03-23T04:24:43;99700.91;;;9.55;100.00
75460;BME280;64039;53.060;9.342;2023-03-23T04:27:08;99710.50;;;9.60;100.00
75460;BME280;64039;53.060;9.342;2023-03-23T04:29:34;99713.97;;;9.64;100.00
75460;BME280;64039;53.060;9.342;2023-03-23T04:31:59;99702.69;;;9.60;100.00
75460;BME280;64039;53.060;9.342;2023-03-23T04:34:27;99717.47;;;9.66;100.00
75460;BME280;64039;53.060;9.342;2023-03-23T04:36:52;99711.34;;;9.58;100.00
75460;BME280;64039;53.060;9.342;2023-03-23T04:39:18;99703.56;;;9.58;100.00
75460;BME280;64039;53.060;9.342;2023-03-23T04:41:44;99707.03;;;9.62;100.00
75460;BME280;64039;53.060;9.342;2023-03-23T04:44:12;99712.22;;;9.60;100.00
75460;BME280;64039;53.060;9.342;2023-03-23T04:46:43;99707.91;;;9.59;100.00
75460;BME280;64039;53.060;9.342;2023-03-23T04:49:10;99700.94;;;9.58;100.00
75460;BME280;64039;53.060;9.342;2023-03-23T04:51:36;99695.75;;;9.56;100.00
75460;BME280;64039;53.060;9.342;2023-03-23T04:54:04;99708.75;;;9.59;100.00
75460;BME280;64039;53.060;9.342;2023-03-23T04:56:29;99707.84;;;9.57;100.00
75460;BME280;64039;53.060;9.342;2023-03-23T04:58:55;99705.34;;;9.67;100.00
75460;BME280;64039;53.060;9.342;2023-03-23T05:01:20;99711.44;;;9.72;100.00
75460;BME280;64039;53.060;9.342;2023-03-23T05:03:46;99706.22;;;9.67;100.00
75460;BME280;64039;53.060;9.342;2023-03-23T05:06:11;99703.63;;;9.70;100.00
75460;BME280;64039;53.060;9.342;2023-03-23T05:08:37;99694.09;;;9.68;100.00
75460;BME280;64039;53.060;9.342;2023-03-23T05:11:05;99697.56;;;9.68;100.00
75460;BME280;64039;53.060;9.342;2023-03-23T05:13:31;99696.69;;;9.66;100.00
75460;BME280;64039;53.060;9.342;2023-03-23T05:15:56;99702.75;;;9.71;100.00
75460;BME280;64039;53.060;9.342;2023-03-23T05:18:22;99703.63;;;9.67;100.00
75460;BME280;64039;53.060;9.342;2023-03-23T05:20:47;99702.75;;;9.70;100.00
75460;BME280;64039;53.060;9.342;2023-03-23T05:23:14;99696.66;;;9.63;100.00
75460;BME280;64039;53.060;9.342;2023-03-23T05:25:40;99694.91;;;9.60;100.00
75460;BME280;64039;53.060;9.342;2023-03-23T05:28:10;99700.06;;;9.54;100.00
75460;BME280;64039;53.060;9.342;2023-03-23T05:30:36;99699.25;;;9.62;100.00
75460;BME280;64039;53.060;9.342;2023-03-23T05:33:02;99713.97;;;9.64;100.00
75460;BME280;64039;53.060;9.342;2023-03-23T05:35:28;99699.25;;;9.62;100.00
75460;BME280;64039;53.060;9.342;2023-03-23T05:37:53;99700.09;;;9.62;100.00
75460;BME280;64039;53.060;9.342;2023-03-23T05:40:21;99696.63;;;9.58;100.00
75460;BME280;64039;53.060;9.342;2023-03-23T05:42:47;99694.09;;;9.66;100.00
75460;BME280;64039;53.060;9.342;2023-03-23T05:45:13;99701.91;;;9.71;100.00
75460;BME280;64039;53.060;9.342;2023-03-23T05:47:40;99695.81;;;9.69;100.00
75460;BME280;64039;53.060;9.342;2023-03-23T05:50:07;99689.75;;;9.67;100.00
75460;BME280;64039;53.060;9.342;2023-03-23T05:52:35;99685.41;;;9.64;100.00
75460;BME280;64039;53.060;9.342;2023-03-23T05:55:02;99693.19;;;9.66;100.00
75460;BME280;64039;53.060;9.342;2023-03-23T05:57:29;99685.44;;;9.70;100.00
75460;BME280;64039;53.060;9.342;2023-03-23T05:59:54;99685.50;;;9.78;100.00
75460;BME280;64039;53.060;9.342;2023-03-23T06:02:21;99697.59;;;9.73;100.00
75460;BME280;64039;53.060;9.342;2023-03-23T06:04:48;99695.03;;;9.81;100.00
75460;BME280;64039;53.060;9.342;2023-03-23T06:07:14;99689.88;;;9.85;100.00
75460;BME280;64039;53.060;9.342;2023-03-23T06:09:40;99697.69;;;9.90;100.00
75460;BME280;64039;53.060;9.342;2023-03-23T06:12:07;99707.22;;;9.91;100.00
75460;BME280;64039;53.060;9.342;2023-03-23T06:14:33;99702.88;;;9.90;100.00
75460;BME280;64039;53.060;9.342;2023-03-23T06:16:59;99698.53;;;9.89;100.00
75460;BME280;64039;53.060;9.342;2023-03-23T06:19:24;99695.94;;;9.87;100.00
75460;BME280;64039;53.060;9.342;2023-03-23T06:21:52;99703.81;;;10.00;100.00
75460;BME280;64039;53.060;9.342;2023-03-23T06:24:17;99719.44;;;10.03;100.00
75460;BME280;64039;53.060;9.342;2023-03-23T06:26:43;99717.72;;;10.05;100.00
75460;BME280;64039;53.060;9.342;2023-03-23T06:29:09;99717.69;;;10.00;100.00
75460;BME280;64039;53.060;9.342;2023-03-23T06:31:44;99716.81;;;9.97;100.00
75460;BME280;64039;53.060;9.342;2023-03-23T06:34:10;99705.59;;;10.10;100.00
75460;BME280;64039;53.060;9.342;2023-03-23T06:36:37;99696.97;;;10.22;100.00
75460;BME280;64039;53.060;9.342;2023-03-23T06:39:04;99695.28;;;10.27;100.00
75460;BME280;64039;53.060;9.342;2023-03-23T06:41:33;99697.88;;;10.26;100.00
75460;BME280;64039;53.060;9.342;2023-03-23T06:43:59;99693.56;;;10.32;100.00
75460;BME280;64039;53.060;9.342;2023-03-23T06:46:25;99708.38;;;10.38;100.00
75460;BME280;64039;53.060;9.342;2023-03-23T06:48:50;99718.78;;;10.40;100.00
75460;BME280;64039;53.060;9.342;2023-03-23T06:51:17;99704.06;;;10.40;100.00
75460;BME280;64039;53.060;9.342;2023-03-23T06:53:43;99700.56;;;10.38;100.00
75460;BME280;64039;53.060;9.342;2023-03-23T06:56:09;99715.34;;;10.51;100.00
75460;BME280;64039;53.060;9.342;2023-03-23T06:58:34;99712.72;;;10.42;100.00
75460;BME280;64039;53.060;9.342;2023-03-23T07:01:00;99713.63;;;10.47;100.00
75460;BME280;64039;53.060;9.342;2023-03-23T07:03:26;99721.41;;;10.50;100.00
75460;BME280;64039;53.060;9.342;2023-03-23T07:05:53;99729.25;;;10.58;100.00
75460;BME280;64039;53.060;9.342;2023-03-23T07:08:19;99738.78;;;10.53;100.00
75460;BME280;64039;53.060;9.342;2023-03-23T07:10:46;99727.47;;;10.49;100.00
75460;BME280;64039;53.060;9.342;2023-03-23T07:13:12;99730.97;;;10.48;100.00
75460;BME280;64039;53.060;9.342;2023-03-23T07:15:38;99734.44;;;10.53;100.00
75460;BME280;64039;53.060;9.342;2023-03-23T07:18:04;99728.38;;;10.54;100.00
75460;BME280;64039;53.060;9.342;2023-03-23T07:20:29;99730.06;;;10.49;100.00
75460;BME280;64039;53.060;9.342;2023-03-23T07:22:55;99736.97;;;10.36;100.00
75460;BME280;64039;53.060;9.342;2023-03-23T07:25:21;99736.19;;;10.54;100.00
75460;BME280;64039;53.060;9.342;2023-03-23T07:27:46;99726.66;;;10.58;100.00
75460;BME280;64039;53.060;9.342;2023-03-23T07:30:13;99724.94;;;10.60;100.00
75460;BME280;64039;53.060;9.342;2023-03-23T07:32:40;99739.75;;;10.81;100.00
75460;BME280;64039;53.060;9.342;2023-03-23T07:35:07;99732.84;;;11.00;100.00
75460;BME280;64039;53.060;9.342;2023-03-23T07:37:34;99726.78;;;11.17;100.00
75460;BME280;64039;53.060;9.342;2023-03-23T07:40:01;99733.75;;;11.29;100.00
75460;BME280;64039;53.060;9.342;2023-03-23T07:42:43;99739.84;;;11.51;100.00
75460;BME280;64039;53.060;9.342;2023-03-23T07:45:12;99738.06;;;11.76;100.00
75460;BME280;64039;53.060;9.342;2023-03-23T07:47:38;99732.00;;;11.77;100.00
75460;BME280;64039;53.060;9.342;2023-03-23T07:50:04;99730.25;;;11.81;100.00
75460;BME280;64039;53.060;9.342;2023-03-23T07:52:31;99732.88;;;11.79;100.00
75460;BME280;64039;53.060;9.342;2023-03-23T07:54:58;99730.25;;;11.79;100.00
75460;BME280;64039;53.060;9.342;2023-03-23T07:57:23;99722.44;;;11.81;100.00
75460;BME280;64039;53.060;9.342;2023-03-23T07:59:49;99732.84;;;11.76;100.00
75460;BME280;64039;53.060;9.342;2023-03-23T08:02:14;99739.84;;;11.60;100.00
75460;BME280;64039;53.060;9.342;2023-03-23T08:04:40;99748.53;;;11.59;100.00
75460;BME280;64039;53.060;9.342;2023-03-23T08:07:05;99766.75;;;11.35;100.00
75460;BME280;64039;53.060;9.342;2023-03-23T08:09:31;99809.19;;;10.96;100.00
75460;BME280;64039;53.060;9.342;2023-03-23T08:11:57;99806.53;;;10.73;100.00
75460;BME280;64039;53.060;9.342;2023-03-23T08:14:23;99796.94;;;10.70;100.00
75460;BME280;64039;53.060;9.342;2023-03-23T08:16:51;99795.09;;;10.42;100.00
75460;BME280;64039;53.060;9.342;2023-03-23T08:19:17;99797.72;;;10.46;100.00
75460;BME280;64039;53.060;9.342;2023-03-23T08:21:42;99811.38;;;10.16;100.00
75460;BME280;64039;53.060;9.342;2023-03-23T08:24:08;99820.81;;;10.01;100.00
75460;BME280;64039;53.060;9.342;2023-03-23T08:26:33;99832.84;;;9.91;100.00
75460;BME280;64039;53.060;9.342;2023-03-23T08:28:59;99840.56;;;9.82;100.00
75460;BME280;64039;53.060;9.342;2023-03-23T08:31:25;99838.81;;;9.78;100.00
75460;BME280;64039;53.060;9.342;2023-03-23T08:33:50;99841.25;;;9.56;100.00
75460;BME280;64039;53.060;9.342;2023-03-23T08:36:16;99838.69;;;9.63;100.00
75460;BME280;64039;53.060;9.342;2023-03-23T08:38:41;99849.94;;;9.62;100.00
75460;BME280;64039;53.060;9.342;2023-03-23T08:41:08;99850.88;;;9.70;100.00
75460;BME280;64039;53.060;9.342;2023-03-23T08:43:34;99856.03;;;9.67;100.00
75460;BME280;64039;53.060;9.342;2023-03-23T08:46:00;99851.63;;;9.58;100.00
75460;BME280;64039;53.060;9.342;2023-03-23T08:48:32;99854.03;;;9.41;100.00
75460;BME280;64039;53.060;9.342;2023-03-23T08:50:59;99864.31;;;9.28;100.00
75460;BME280;64039;53.060;9.342;2023-03-23T08:53:25;99849.66;;;9.34;100.00
75460;BME280;64039;53.060;9.342;2023-03-23T08:55:51;99850.50;;;9.31;100.00
75460;BME280;64039;53.060;9.342;2023-03-23T08:58:16;99857.47;;;9.35;100.00
75460;BME280;64039;53.060;9.342;2023-03-23T09:00:43;99859.28;;;9.46;100.00
75460;BME280;64039;53.060;9.342;2023-03-23T09:03:08;99855.88;;;9.50;100.00
75460;BME280;64039;53.060;9.342;2023-03-23T09:05:34;99844.56;;;9.44;100.00
75460;BME280;64039;53.060;9.342;2023-03-23T09:08:01;99839.34;;;9.41;100.00
75460;BME280;64039;53.060;9.342;2023-03-23T09:10:29;99845.53;;;9.56;100.00
75460;BME280;64039;53.060;9.342;2023-03-23T09:12:56;99853.50;;;9.73;100.00
75460;BME280;64039;53.060;9.342;2023-03-23T09:15:22;99851.00;;;9.87;100.00
75460;BME280;64039;53.060;9.342;2023-03-23T09:17:50;99851.00;;;9.84;100.00
75460;BME280;64039;53.060;9.342;2023-03-23T09:20:19;99838.75;;;9.70;100.00
75460;BME280;64039;53.060;9.342;2023-03-23T09:22:47;99861.47;;;9.93;100.00
75460;BME280;64039;53.060;9.342;2023-03-23T09:25:15;99864.13;;;10.01;100.00
75460;BME280;64039;53.060;9.342;2023-03-23T09:27:44;99859.78;;;9.97;100.00
75460;BME280;64039;53.060;9.342;2023-03-23T09:30:13;99865.94;;;10.13;100.00
75460;BME280;64039;53.060;9.342;2023-03-23T09:32:39;99875.56;;;10.25;100.00
75460;BME280;64039;53.060;9.342;2023-03-23T09:35:07;99877.28;;;10.19;100.00
75460;BME280;64039;53.060;9.342;2023-03-23T09:37:34;99867.63;;;10.04;100.00
75460;BME280;64039;53.060;9.342;2023-03-23T09:40:02;99874.69;;;10.21;100.00
75460;BME280;64039;53.060;9.342;2023-03-23T09:42:51;99877.56;;;10.57;100.00
75460;BME280;64039;53.060;9.342;2023-03-23T09:45:47;99878.41;;;10.52;100.00
75460;BME280;64039;53.060;9.342;2023-03-23T09:51:16;99892.88;;;10.18;100.00
75460;BME280;64039;53.060;9.342;2023-03-23T09:53:48;99905.88;;;10.19;100.00
75460;BME280;64039;53.060;9.342;2023-03-23T09:56:15;99905.03;;;10.22;100.00
75460;BME280;64039;53.060;9.342;2023-03-23T09:59:46;99905.03;;;10.19;100.00
75460;BME280;64039;53.060;9.342;2023-03-23T10:02:13;99895.41;;;10.12;100.00
75460;BME280;64039;53.060;9.342;2023-03-23T10:04:51;99888.28;;;9.86;100.00
75460;BME280;64039;53.060;9.342;2023-03-23T10:07:25;99895.16;;;9.82;100.00
75460;BME280;64039;53.060;9.342;2023-03-23T10:09:54;99896.94;;;9.86;100.00
75460;BME280;64039;53.060;9.342;2023-03-23T10:15:23;99901.34;;;9.95;100.00
75460;BME280;64039;53.060;9.342;2023-03-23T10:18:09;99910.03;;;9.97;100.00
75460;BME280;64039;53.060;9.342;2023-03-23T10:20:55;99905.59;;;9.84;100.00
75460;BME280;64039;53.060;9.342;2023-03-23T10:23:49;99905.63;;;9.88;100.00
75460;BME280;64039;53.060;9.342;2023-03-23T10:26:33;99922.13;;;9.92;100.00
75460;BME280;64039;53.060;9.342;2023-03-23T10:29:21;99925.63;;;9.96;100.00
75460;BME280;64039;53.060;9.342;2023-03-23T10:32:11;99927.09;;;9.69;100.00
75460;BME280;64039;53.060;9.342;2023-03-23T10:34:55;99925.28;;;9.63;100.00
75460;BME280;64039;53.060;9.342;2023-03-23T10:37:26;99924.53;;;9.73;100.00
75460;BME280;64039;53.060;9.342;2023-03-23T10:39:54;99935.78;;;9.71;100.00
75460;BME280;64039;53.060;9.342;2023-03-23T10:42:25;99935.84;;;9.77;100.00
75460;BME280;64039;53.060;9.342;2023-03-23T10:44:52;99927.31;;;9.94;100.00
75460;BME280;64039;53.060;9.342;2023-03-23T10:47:18;99926.34;;;9.79;100.00
75460;BME280;64039;53.060;9.342;2023-03-23T10:49:53;99930.09;;;10.11;100.00
75460;BME280;64039;53.060;9.342;2023-03-23T10:55:08;99922.25;;;10.07;100.00
75460;BME280;64039;53.060;9.342;2023-03-23T10:57:36;99922.47;;;10.32;100.00
75460;BME280;64039;53.060;9.342;2023-03-23T11:02:42;99933.59;;;10.17;100.00
75460;BME280;64039;53.060;9.342;2023-03-23T11:05:23;99931.22;;;10.39;100.00
75460;BME280;64039;53.060;9.342;2023-03-23T11:07:53;99931.22;;;10.39;100.00
75460;BME280;64039;53.060;9.342;2023-03-23T11:10:27;99929.41;;;10.32;100.00
75460;BME280;64039;53.060;9.342;2023-03-23T11:12:57;99928.69;;;10.50;100.00
75460;BME280;64039;53.060;9.342;2023-03-23T11:15:29;99928.66;;;10.47;100.00
75460;BME280;64039;53.060;9.342;2023-03-23T11:17:59;99936.50;;;10.48;100.00
75460;BME280;64039;53.060;9.342;2023-03-23T11:20:26;99928.56;;;10.36;100.00
75460;BME280;64039;53.060;9.342;2023-03-23T11:22:53;99934.03;;;10.68;100.00
75460;BME280;64039;53.060;9.342;2023-03-23T11:25:20;99922.00;;;10.86;100.00
75460;BME280;64039;53.060;9.342;2023-03-23T11:27:46;99934.06;;;10.73;100.00
75460;BME280;64039;53.060;9.342;2023-03-23T11:30:27;99939.31;;;10.87;100.00
75460;BME280;64039;53.060;9.342;2023-03-23T11:32:58;99933.34;;;11.02;100.00
75460;BME280;64039;53.060;9.342;2023-03-23T11:35:27;99945.56;;;11.17;100.00
75460;BME280;64039;53.060;9.342;2023-03-23T11:37:56;99945.50;;;11.05;100.00
75460;BME280;64039;53.060;9.342;2023-03-23T11:40:26;99941.13;;;10.96;100.00
75460;BME280;64039;53.060;9.342;2023-03-23T11:45:37;99945.44;;;10.91;100.00
75460;BME280;64039;53.060;9.342;2023-03-23T11:48:18;99952.38;;;10.89;100.00
75460;BME280;64039;53.060;9.342;2023-03-23T11:51:05;99950.63;;;10.88;100.00
75460;BME280;64039;53.060;9.342;2023-03-23T11:54:09;99948.94;;;10.97;100.00
75460;BME280;64039;53.060;9.342;2023-03-23T11:56:38;99945.53;;;11.09;100.00
75460;BME280;64039;53.060;9.342;2023-03-23T11:59:15;99946.44;;;11.16;100.00
75460;BME280;64039;53.060;9.342;2023-03-23T12:01:51;99952.59;;;11.32;100.00
75460;BME280;64039;53.060;9.342;2023-03-23T12:04:47;99951.72;;;11.36;100.00
75460;BME280;64039;53.060;9.342;2023-03-23T12:09:58;99949.16;;;11.45;100.00
75460;BME280;64039;53.060;9.342;2023-03-23T12:12:45;99957.00;;;11.56;100.00
75460;BME280;64039;53.060;9.342;2023-03-23T12:15:34;99949.16;;;11.45;100.00
75460;BME280;64039;53.060;9.342;2023-03-23T12:18:14;99948.31;;;11.48;100.00
75460;BME280;64039;53.060;9.342;2023-03-23T12:23:24;99929.25;;;11.80;100.00
75460;BME280;64039;53.060;9.342;2023-03-23T12:26:05;99929.28;;;11.85;100.00
75460;BME280;64039;53.060;9.342;2023-03-23T12:28:55;99915.41;;;12.01;100.00
75460;BME280;64039;53.060;9.342;2023-03-23T12:44:49;99923.28;;;12.37;100.00
75460;BME280;64039;53.060;9.342;2023-03-23T12:47:44;99909.31;;;12.46;100.00
75460;BME280;64039;53.060;9.342;2023-03-23T12:50:32;99918.91;;;12.31;100.00
75460;BME280;64039;53.060;9.342;2023-03-23T12:53:20;99919.78;;;12.36;100.00
75460;BME280;64039;53.060;9.342;2023-03-23T12:58:52;99929.34;;;12.42;100.00
75460;BME280;64039;53.060;9.342;2023-03-23T13:01:23;99940.66;;;12.24;100.00
75460;BME280;64039;53.060;9.342;2023-03-23T13:03:58;99929.34;;;12.42;100.00
75460;BME280;64039;53.060;9.342;2023-03-23T13:06:31;99930.22;;;12.35;100.00
75460;BME280;64039;53.060;9.342;2023-03-23T13:09:20;99925.84;;;12.58;100.00
75460;BME280;64039;53.060;9.342;2023-03-23T13:11:50;99931.88;;;12.82;100.00
75460;BME280;64039;53.060;9.342;2023-03-23T13:17:38;99926.69;;;12.71;100.00
75460;BME280;64039;53.060;9.342;2023-03-23T13:28:32;99908.44;;;12.67;100.00
75460;BME280;64039;53.060;9.342;2023-03-23T13:31:12;99897.13;;;12.71;100.00
75460;BME280;64039;53.060;9.342;2023-03-23T13:33:39;99906.69;;;12.56;100.00
75460;BME280;64039;53.060;9.342;2023-03-23T13:36:11;99913.63;;;12.84;100.00
75460;BME280;64039;53.060;9.342;2023-03-23T13:38:37;99921.50;;;12.59;100.00
75460;BME280;64039;53.060;9.342;2023-03-23T13:41:21;99921.50;;;12.61;100.00
75460;BME280;64039;53.060;9.342;2023-03-23T13:43:48;99928.44;;;12.77;100.00
75460;BME280;64039;53.060;9.342;2023-03-23T13:46:28;99924.09;;;12.61;100.00
75460;BME280;64039;53.060;9.342;2023-03-23T13:51:47;99934.44;;;13.09;100.00
75460;BME280;64039;53.060;9.342;2023-03-23T14:02:20;99920.47;;;13.17;100.00
75460;BME280;64039;53.060;9.342;2023-03-23T14:04:42;99930.91;;;13.20;100.00
75460;BME280;64039;53.060;9.342;2023-03-23T14:07:12;99910.94;;;13.05;100.00
75460;BME280;64039;53.060;9.342;2023-03-23T14:09:42;99924.84;;;13.09;100.00
75460;BME280;64039;53.060;9.342;2023-03-23T14:12:23;99924.81;;;13.20;100.00
75460;BME280;64039;53.060;9.342;2023-03-23T14:14:58;99917.84;;;13.22;100.00
75460;BME280;64039;53.060;9.342;2023-03-23T14:17:28;99916.09;;;13.18;100.00
75460;BME280;64039;53.060;9.342;2023-03-23T14:19:57;99913.53;;;13.02;100.00
75460;BME280;64039;53.060;9.342;2023-03-23T14:22:28;99919.63;;;13.04;100.00